createdAt,value
2023-09-11T00:00:33.374Z,15.10
2023-09-11T00:02:59.809Z,15.09
2023-09-11T00:05:26.337Z,15.08
2023-09-11T00:07:52.834Z,15.06
2023-09-11T00:10:19.227Z,15.03
2023-09-11T00:12:45.637Z,15.02
2023-09-11T00:15:12.249Z,15.01
2023-09-11T00:17:38.688Z,15.02
2023-09-11T00:20:11.570Z,15.03
2023-09-11T00:22:38.213Z,15.03
2023-09-11T00:25:04.730Z,15.03
2023-09-11T00:27:31.105Z,15.00
2023-09-11T00:29:58.780Z,14.98
2023-09-11T00:32:25.281Z,14.99
2023-09-11T00:34:52.172Z,14.95
2023-09-11T00:37:18.587Z,14.91
2023-09-11T00:39:44.971Z,14.89
2023-09-11T00:42:11.444Z,14.84
2023-09-11T00:44:37.899Z,14.79
2023-09-11T00:47:04.485Z,14.76
2023-09-11T00:49:30.830Z,14.74
2023-09-11T00:51:57.482Z,14.74
2023-09-11T00:54:23.875Z,14.69
2023-09-11T00:56:50.289Z,14.65
2023-09-11T00:59:17.004Z,14.61
2023-09-11T01:01:43.659Z,14.60
2023-09-11T01:04:10.103Z,14.61
2023-09-11T01:06:36.460Z,14.60
2023-09-11T01:09:03.359Z,14.57
2023-09-11T01:11:29.762Z,14.58
2023-09-11T01:13:56.412Z,14.56
2023-09-11T01:16:22.834Z,14.57
2023-09-11T01:18:49.290Z,14.56
2023-09-11T01:21:15.642Z,14.56
2023-09-11T01:23:48.124Z,14.53
2023-09-11T01:26:17.484Z,14.52
2023-09-11T01:28:43.776Z,14.55
2023-09-11T01:31:10.445Z,14.55
2023-09-11T01:33:37.318Z,14.54
2023-09-11T01:36:03.767Z,14.53
2023-09-11T01:38:30.166Z,14.50
2023-09-11T01:40:58.048Z,14.48
2023-09-11T01:43:24.419Z,14.46
2023-09-11T01:45:50.902Z,14.42
2023-09-11T01:48:17.444Z,14.42
2023-09-11T01:50:44.190Z,14.40
2023-09-11T01:53:10.661Z,14.36
2023-09-11T01:55:37.073Z,14.32
2023-09-11T01:58:03.416Z,14.28
2023-09-11T02:00:29.840Z,14.23
2023-09-11T02:05:23.501Z,14.18
2023-09-11T02:07:49.903Z,14.14
2023-09-11T02:10:17.023Z,14.13
2023-09-11T02:12:43.480Z,14.14
2023-09-11T02:15:09.911Z,14.14
2023-09-11T02:17:36.420Z,14.14
2023-09-11T02:20:05.133Z,14.16
2023-09-11T02:22:31.527Z,14.17
2023-09-11T02:24:58.002Z,14.20
2023-09-11T02:27:24.435Z,14.26
2023-09-11T02:29:50.868Z,14.29
2023-09-11T02:32:17.296Z,14.30
2023-09-11T02:34:43.822Z,14.31
2023-09-11T02:37:10.315Z,14.30
2023-09-11T02:39:37.339Z,14.31
2023-09-11T02:42:03.718Z,14.33
2023-09-11T02:44:30.184Z,14.35
2023-09-11T02:46:56.664Z,14.35
2023-09-11T02:49:23.093Z,14.33
2023-09-11T02:51:49.452Z,14.30
2023-09-11T02:54:15.799Z,14.27
2023-09-11T02:56:42.261Z,14.25
2023-09-11T02:59:08.774Z,14.20
2023-09-11T03:01:35.828Z,14.20
2023-09-11T03:04:02.338Z,14.14
2023-09-11T03:06:28.787Z,14.12
2023-09-11T03:08:55.212Z,14.07
2023-09-11T03:11:22.651Z,14.04
2023-09-11T03:13:49.382Z,14.04
2023-09-11T03:16:15.994Z,14.06
2023-09-11T03:18:42.959Z,14.09
2023-09-11T03:21:09.880Z,14.11
2023-09-11T03:23:36.642Z,14.14
2023-09-11T03:26:03.207Z,14.14
2023-09-11T03:28:30.123Z,14.13
2023-09-11T03:30:56.518Z,14.12
2023-09-11T03:33:23.217Z,14.11
2023-09-11T03:35:49.838Z,14.10
2023-09-11T03:38:16.482Z,14.10
2023-09-11T03:40:44.055Z,14.11
2023-09-11T03:43:10.543Z,14.11
2023-09-11T03:45:36.959Z,14.10
2023-09-11T03:48:03.437Z,14.11
2023-09-11T03:50:30.012Z,14.10
2023-09-11T03:52:56.637Z,14.11
2023-09-11T03:55:23.064Z,14.09
2023-09-11T03:57:49.427Z,14.09
2023-09-11T04:00:15.959Z,14.07
2023-09-11T04:02:42.308Z,14.06
2023-09-11T04:05:08.747Z,14.05
2023-09-11T04:07:35.132Z,14.01
2023-09-11T04:10:01.643Z,13.99
2023-09-11T04:12:28.295Z,13.98
2023-09-11T04:14:54.748Z,13.99
2023-09-11T04:17:21.148Z,14.01
2023-09-11T04:19:47.501Z,13.99
2023-09-11T04:22:13.948Z,13.96
2023-09-11T04:24:40.338Z,13.93
2023-09-11T04:27:06.797Z,13.92
2023-09-11T04:29:33.251Z,13.86
2023-09-11T04:31:59.802Z,13.83
2023-09-11T04:34:26.734Z,13.83
2023-09-11T04:36:53.187Z,13.81
2023-09-11T04:39:20.603Z,13.81
2023-09-11T04:41:47.062Z,13.78
2023-09-11T04:44:13.461Z,13.70
2023-09-11T04:46:40.385Z,13.71
2023-09-11T04:49:06.858Z,13.71
2023-09-11T04:51:33.276Z,13.73
2023-09-11T04:54:00.003Z,13.74
2023-09-11T04:56:26.466Z,13.74
2023-09-11T04:58:52.935Z,13.77
2023-09-11T05:01:19.388Z,13.75
2023-09-11T05:03:46.007Z,13.76
2023-09-11T05:06:12.492Z,13.77
2023-09-11T05:11:08.256Z,13.73
2023-09-11T05:13:34.642Z,13.72
2023-09-11T05:16:01.155Z,13.70
2023-09-11T05:18:27.606Z,13.68
2023-09-11T05:20:54.184Z,13.66
2023-09-11T05:23:20.661Z,13.64
2023-09-11T05:25:47.861Z,13.66
2023-09-11T05:28:14.399Z,13.68
2023-09-11T05:30:41.071Z,13.70
2023-09-11T05:33:07.533Z,13.74
2023-09-11T05:35:34.097Z,13.80
2023-09-11T05:38:00.528Z,13.88
2023-09-11T05:40:26.926Z,13.91
2023-09-11T05:42:53.293Z,13.89
2023-09-11T05:45:19.674Z,13.88
2023-09-11T05:47:46.274Z,13.93
2023-09-11T05:50:12.838Z,14.00
2023-09-11T05:52:39.269Z,14.17
2023-09-11T05:55:05.829Z,14.38
2023-09-11T05:57:32.189Z,14.62
2023-09-11T05:59:58.668Z,14.81
2023-09-11T06:02:25.174Z,15.06
2023-09-11T06:04:51.612Z,15.32
2023-09-11T06:07:18.039Z,15.59
2023-09-11T06:09:44.484Z,15.85
2023-09-11T06:12:11.084Z,16.21
2023-09-11T06:14:39.413Z,16.73
2023-09-11T06:17:06.318Z,17.43
2023-09-11T06:19:32.797Z,18.28
2023-09-11T06:21:59.213Z,19.11
2023-09-11T06:24:25.578Z,19.94
2023-09-11T06:27:02.908Z,20.60
2023-09-11T06:29:29.548Z,21.14
2023-09-11T06:31:55.998Z,21.66
2023-09-11T06:34:23.132Z,22.19
2023-09-11T06:36:49.510Z,22.60
2023-09-11T06:39:16.850Z,23.08
2023-09-11T06:41:43.407Z,23.43
2023-09-11T06:44:10.276Z,23.73
2023-09-11T06:46:36.740Z,24.16
2023-09-11T06:49:03.376Z,24.29
2023-09-11T06:51:29.771Z,24.52
2023-09-11T06:53:56.240Z,24.74
2023-09-11T06:56:22.658Z,25.04
2023-09-11T06:58:49.086Z,25.27
2023-09-11T07:01:15.662Z,25.18
2023-09-11T07:03:43.802Z,24.53
2023-09-11T07:06:13.139Z,23.76
2023-09-11T07:08:39.724Z,23.28
2023-09-11T07:11:06.452Z,22.98
2023-09-11T07:13:33.041Z,22.69
2023-09-11T07:15:59.691Z,22.47
2023-09-11T07:18:26.279Z,22.28
2023-09-11T07:20:53.138Z,22.21
2023-09-11T07:23:19.979Z,22.17
2023-09-11T07:25:46.777Z,22.14
2023-09-11T07:28:16.244Z,22.26
2023-09-11T07:30:43.431Z,22.49
2023-09-11T07:33:10.344Z,22.72
2023-09-11T07:35:36.917Z,22.98
2023-09-11T07:38:03.267Z,23.55
2023-09-11T07:40:29.596Z,24.90
2023-09-11T07:42:55.985Z,26.38
2023-09-11T07:45:22.651Z,27.69
2023-09-11T07:47:49.082Z,28.78
2023-09-11T07:50:15.473Z,29.61
2023-09-11T07:52:41.837Z,30.39
2023-09-11T07:55:08.364Z,30.88
2023-09-11T07:57:34.713Z,31.37
2023-09-11T08:00:05.708Z,31.79
2023-09-11T08:02:32.174Z,32.44
2023-09-11T08:04:58.508Z,32.87
2023-09-11T08:07:24.855Z,33.28
2023-09-11T08:09:52.700Z,33.79
2023-09-11T08:12:19.049Z,34.26
2023-09-11T08:14:45.676Z,34.63
2023-09-11T08:17:12.857Z,34.82
2023-09-11T08:19:39.603Z,35.02
2023-09-11T08:22:05.926Z,35.35
2023-09-11T08:24:32.270Z,35.78
2023-09-11T08:26:58.645Z,36.11
2023-09-11T08:29:25.044Z,36.32
2023-09-11T08:31:51.395Z,36.58
2023-09-11T08:34:17.913Z,36.85
2023-09-11T08:36:46.114Z,37.20
2023-09-11T08:39:12.697Z,37.54
2023-09-11T08:41:39.588Z,37.92
2023-09-11T08:44:06.039Z,38.21
2023-09-11T08:46:35.343Z,38.26
2023-09-11T08:49:01.963Z,38.32
2023-09-11T08:51:36.990Z,38.46
2023-09-11T08:54:04.522Z,38.58
2023-09-11T08:56:31.353Z,38.71
2023-09-11T08:58:57.968Z,38.72
2023-09-11T09:01:24.358Z,37.77
2023-09-11T09:03:51.518Z,36.59
2023-09-11T09:06:18.062Z,35.67
2023-09-11T09:08:44.635Z,34.85
2023-09-11T09:11:10.982Z,34.24
2023-09-11T09:13:37.328Z,33.62
2023-09-11T09:16:06.724Z,33.17
2023-09-11T09:18:33.241Z,32.72
2023-09-11T09:21:00.987Z,32.29
2023-09-11T09:23:32.126Z,31.90
2023-09-11T09:26:05.389Z,31.62
2023-09-11T09:28:34.177Z,31.38
2023-09-11T09:31:02.757Z,31.14
2023-09-11T09:33:31.014Z,30.99
2023-09-11T09:35:57.570Z,30.63
2023-09-11T09:38:24.073Z,30.51
2023-09-11T09:40:51.352Z,30.39
2023-09-11T09:43:18.079Z,30.22
2023-09-11T09:45:44.567Z,30.00
2023-09-11T09:48:11.793Z,29.80
2023-09-11T09:50:47.475Z,29.59
2023-09-11T09:53:33.134Z,29.45
2023-09-11T09:56:00.361Z,29.28
2023-09-11T09:58:29.503Z,28.93
2023-09-11T10:01:01.781Z,28.69
2023-09-11T10:03:28.637Z,28.49
2023-09-11T10:05:55.098Z,28.42
2023-09-11T10:08:21.517Z,28.49
2023-09-11T10:10:47.986Z,28.39
2023-09-11T10:13:14.747Z,28.36
2023-09-11T10:15:41.834Z,28.23
2023-09-11T10:18:08.731Z,28.03
2023-09-11T10:20:35.418Z,27.98
2023-09-11T10:23:03.637Z,28.00
2023-09-11T10:25:30.702Z,28.02
2023-09-11T10:28:09.961Z,27.97
2023-09-11T10:30:57.890Z,27.85
2023-09-11T10:33:33.654Z,27.68
2023-09-11T10:36:01.057Z,27.56
2023-09-11T10:38:28.470Z,27.54
2023-09-11T10:40:58.264Z,27.42
2023-09-11T10:43:24.853Z,27.37
2023-09-11T10:45:52.588Z,27.30
2023-09-11T10:48:31.833Z,27.19
2023-09-11T10:50:59.227Z,27.04
2023-09-11T10:53:31.667Z,27.03
2023-09-11T10:56:00.820Z,26.94
2023-09-11T10:58:27.432Z,26.93
2023-09-11T11:00:54.693Z,26.86
2023-09-11T11:03:21.820Z,26.83
2023-09-11T11:05:48.628Z,26.75
2023-09-11T11:08:15.724Z,26.65
2023-09-11T11:10:43.034Z,26.62
2023-09-11T11:13:09.791Z,26.67
2023-09-11T11:15:36.848Z,26.60
2023-09-11T11:18:06.673Z,26.51
2023-09-11T11:20:34.071Z,26.48
2023-09-11T11:23:06.785Z,26.48
2023-09-11T11:25:33.113Z,26.40
2023-09-11T11:28:07.056Z,26.26
2023-09-11T11:30:34.927Z,26.24
2023-09-11T11:33:01.695Z,26.21
2023-09-11T11:35:28.446Z,26.20
2023-09-11T11:37:55.084Z,26.16
2023-09-11T11:40:21.444Z,26.09
2023-09-11T11:42:47.771Z,26.01
2023-09-11T11:45:14.151Z,26.01
2023-09-11T11:47:41.731Z,25.97
2023-09-11T11:50:08.884Z,25.96
2023-09-11T11:52:35.608Z,25.96
2023-09-11T11:55:01.946Z,25.93
2023-09-11T11:57:28.702Z,25.87
2023-09-11T11:59:55.087Z,25.85
2023-09-11T12:02:21.898Z,25.82
2023-09-11T12:04:50.173Z,25.78
2023-09-11T12:07:17.273Z,25.77
2023-09-11T12:09:43.705Z,25.74
2023-09-11T12:12:10.320Z,25.70
2023-09-11T12:14:37.718Z,25.69
2023-09-11T12:17:08.120Z,25.66
2023-09-11T12:19:34.471Z,25.64
2023-09-11T12:22:04.023Z,25.60
2023-09-11T12:24:32.804Z,25.55
2023-09-11T12:27:00.965Z,25.49
2023-09-11T12:29:28.557Z,25.46
2023-09-11T12:31:54.901Z,25.46
2023-09-11T12:34:21.228Z,25.45
2023-09-11T12:36:47.589Z,25.40
2023-09-11T12:39:14.013Z,25.37
2023-09-11T12:41:40.389Z,25.35
2023-09-11T12:44:06.779Z,25.30
2023-09-11T12:46:34.946Z,25.28
2023-09-11T12:49:01.525Z,25.24
2023-09-11T12:51:28.062Z,25.21
2023-09-11T12:53:54.423Z,25.18
2023-09-11T12:56:21.507Z,25.16
2023-09-11T12:58:48.467Z,25.13
2023-09-11T13:01:14.891Z,25.08
2023-09-11T13:03:45.732Z,25.03
2023-09-11T13:06:12.535Z,25.04
2023-09-11T13:08:38.930Z,25.01
2023-09-11T13:11:05.256Z,25.01
2023-09-11T13:13:35.529Z,24.97
2023-09-11T13:16:02.575Z,24.96
2023-09-11T13:18:29.440Z,24.94
2023-09-11T13:20:56.104Z,24.94
2023-09-11T13:23:22.901Z,24.94
2023-09-11T13:25:49.253Z,24.91
2023-09-11T13:28:15.698Z,24.90
2023-09-11T13:30:42.080Z,24.90
2023-09-11T13:33:08.481Z,24.89
2023-09-11T13:35:34.890Z,24.88
2023-09-11T13:38:03.540Z,24.86
2023-09-11T13:40:29.881Z,24.85
2023-09-11T13:42:56.215Z,24.82
2023-09-11T13:45:22.607Z,24.78
2023-09-11T13:47:50.334Z,24.74
2023-09-11T13:50:16.771Z,24.72
2023-09-11T13:52:43.158Z,24.71
2023-09-11T13:55:09.574Z,24.68
2023-09-11T13:57:36.148Z,24.67
2023-09-11T14:00:04.343Z,24.67
2023-09-11T14:02:30.746Z,24.66
2023-09-11T14:04:57.492Z,24.63
2023-09-11T14:07:25.119Z,24.62
2023-09-11T14:09:51.468Z,24.59
2023-09-11T14:12:17.886Z,24.57
2023-09-11T14:14:44.321Z,24.55
2023-09-11T14:17:10.716Z,24.52
2023-09-11T14:19:37.072Z,24.52
2023-09-11T14:22:03.417Z,24.50
2023-09-11T14:24:30.068Z,24.50
2023-09-11T14:26:56.473Z,24.47
2023-09-11T14:29:22.810Z,24.44
2023-09-11T14:31:50.210Z,24.43
2023-09-11T14:34:17.038Z,24.42
2023-09-11T14:36:43.381Z,24.39
2023-09-11T14:39:09.771Z,24.37
2023-09-11T14:41:36.290Z,24.36
2023-09-11T14:44:02.611Z,24.35
2023-09-11T14:46:29.068Z,24.33
2023-09-11T14:48:56.077Z,24.27
2023-09-11T14:51:22.774Z,24.25
2023-09-11T14:53:49.170Z,24.21
2023-09-11T14:56:15.521Z,24.20
2023-09-11T14:58:41.990Z,24.18
2023-09-11T15:01:09.253Z,24.18
2023-09-11T15:03:35.713Z,24.15
2023-09-11T15:06:02.198Z,24.13
2023-09-11T15:08:28.565Z,24.09
2023-09-11T15:10:58.599Z,24.07
2023-09-11T15:13:27.072Z,24.06
2023-09-11T15:15:54.091Z,24.05
2023-09-11T15:18:21.168Z,24.03
2023-09-11T15:20:49.158Z,23.99
2023-09-11T15:23:15.644Z,23.97
2023-09-11T15:25:42.088Z,23.95
2023-09-11T15:28:08.564Z,23.93
2023-09-11T15:30:38.477Z,23.91
2023-09-11T15:33:05.560Z,23.88
2023-09-11T15:35:31.974Z,23.87
2023-09-11T15:37:58.323Z,23.83
2023-09-11T15:40:24.659Z,23.81
2023-09-11T15:42:52.350Z,23.79
2023-09-11T15:45:18.823Z,23.77
2023-09-11T15:47:46.183Z,23.73
2023-09-11T15:50:12.635Z,23.69
2023-09-11T15:52:39.385Z,23.69
2023-09-11T15:55:05.721Z,23.66
2023-09-11T15:57:32.099Z,23.62
2023-09-11T15:59:58.804Z,23.59
2023-09-11T16:02:25.231Z,23.57
2023-09-11T16:04:51.615Z,23.54
2023-09-11T16:07:17.958Z,23.49
2023-09-11T16:09:44.278Z,23.46
2023-09-11T16:12:10.671Z,23.43
2023-09-11T16:14:37.079Z,23.41
2023-09-11T16:17:03.543Z,23.39
2023-09-11T16:19:29.994Z,23.35
2023-09-11T16:21:56.409Z,23.32
2023-09-11T16:24:22.908Z,23.29
2023-09-11T16:26:49.328Z,23.27
2023-09-11T16:29:15.722Z,23.24
2023-09-11T16:31:42.223Z,23.21
2023-09-11T16:34:11.322Z,23.18
2023-09-11T16:36:37.747Z,23.16
2023-09-11T16:39:04.097Z,23.13
2023-09-11T16:41:30.504Z,23.09
2023-09-11T16:43:57.046Z,23.06
2023-09-11T16:46:24.003Z,23.02
2023-09-11T16:48:50.485Z,22.98
2023-09-11T16:51:16.886Z,22.95
2023-09-11T16:53:43.321Z,22.88
2023-09-11T16:56:09.817Z,22.82
2023-09-11T16:58:36.192Z,22.78
2023-09-11T17:01:06.669Z,22.72
2023-09-11T17:03:33.207Z,22.66
2023-09-11T17:05:59.687Z,22.61
2023-09-11T17:08:26.034Z,22.55
2023-09-11T17:10:52.434Z,22.49
2023-09-11T17:13:20.822Z,22.43
2023-09-11T17:15:47.693Z,22.35
2023-09-11T17:18:14.448Z,22.28
2023-09-11T17:20:41.206Z,22.21
2023-09-11T17:23:07.554Z,22.13
2023-09-11T17:25:34.692Z,22.03
2023-09-11T17:28:01.020Z,21.97
2023-09-11T17:30:27.506Z,21.89
2023-09-11T17:32:54.031Z,21.80
2023-09-11T17:35:20.511Z,21.71
2023-09-11T17:37:46.836Z,21.63
2023-09-11T17:40:13.171Z,21.52
2023-09-11T17:42:39.809Z,21.33
2023-09-11T17:45:06.489Z,21.14
2023-09-11T17:47:32.934Z,20.98
2023-09-11T17:49:59.325Z,20.82
2023-09-11T17:52:26.163Z,20.65
2023-09-11T17:54:52.561Z,20.50
2023-09-11T17:57:19.930Z,20.37
2023-09-11T17:59:46.299Z,20.24
2023-09-11T18:02:12.628Z,20.13
2023-09-11T18:04:40.392Z,20.02
2023-09-11T18:07:08.193Z,19.89
2023-09-11T18:09:34.573Z,19.82
2023-09-11T18:12:01.019Z,19.73
2023-09-11T18:14:27.382Z,19.66
2023-09-11T18:16:53.877Z,19.62
2023-09-11T18:19:20.912Z,19.55
2023-09-11T18:21:47.262Z,19.46
2023-09-11T18:24:13.639Z,19.36
2023-09-11T18:26:40.358Z,19.27
2023-09-11T18:29:32.844Z,19.20
2023-09-11T18:31:59.177Z,19.11
2023-09-11T18:34:25.751Z,19.05
2023-09-11T18:36:52.203Z,18.98
2023-09-11T18:39:23.446Z,18.90
2023-09-11T18:41:53.916Z,18.86
2023-09-11T18:44:20.350Z,18.81
2023-09-11T18:46:46.687Z,18.77
2023-09-11T18:49:13.550Z,18.68
2023-09-11T18:51:41.646Z,18.61
2023-09-11T18:54:10.030Z,18.52
2023-09-11T18:56:37.971Z,18.45
2023-09-11T18:59:04.335Z,18.38
2023-09-11T19:01:32.008Z,18.31
2023-09-11T19:03:58.491Z,18.23
2023-09-11T19:06:24.937Z,18.18
2023-09-11T19:08:51.360Z,18.12
2023-09-11T19:11:17.733Z,18.06
2023-09-11T19:13:44.079Z,17.99
2023-09-11T19:16:10.517Z,17.93
2023-09-11T19:18:38.270Z,17.91
2023-09-11T19:21:05.503Z,17.87
2023-09-11T19:23:33.107Z,17.81
2023-09-11T19:26:00.782Z,17.75
2023-09-11T19:28:30.346Z,17.69
2023-09-11T19:30:56.724Z,17.63
2023-09-11T19:33:23.117Z,17.59
2023-09-11T19:35:49.579Z,17.53
2023-09-11T19:38:16.386Z,17.46
2023-09-11T19:40:43.446Z,17.38
2023-09-11T19:43:09.776Z,17.34
2023-09-11T19:45:36.200Z,17.27
2023-09-11T19:48:02.735Z,17.24
2023-09-11T19:50:29.096Z,17.19
2023-09-11T19:52:55.478Z,17.17
2023-09-11T19:55:21.918Z,17.15
2023-09-11T19:57:49.197Z,17.11
2023-09-11T20:00:15.668Z,17.07
2023-09-11T20:02:42.182Z,17.02
2023-09-11T20:05:08.694Z,16.97
2023-09-11T20:07:35.377Z,16.92
2023-09-11T20:10:04.846Z,16.86
2023-09-11T20:12:32.912Z,16.79
2023-09-11T20:14:59.372Z,16.73
2023-09-11T20:17:25.725Z,16.70
2023-09-11T20:19:52.061Z,16.67
2023-09-11T20:22:19.194Z,16.61
2023-09-11T20:24:45.724Z,16.56
2023-09-11T20:27:12.358Z,16.54
2023-09-11T20:29:38.734Z,16.53
2023-09-11T20:32:05.653Z,16.51
2023-09-11T20:34:32.495Z,16.47
2023-09-11T20:36:58.872Z,16.48
2023-09-11T20:39:25.756Z,16.45
2023-09-11T20:41:52.296Z,16.39
2023-09-11T20:44:18.866Z,16.37
2023-09-11T20:46:45.256Z,16.36
2023-09-11T20:49:11.594Z,16.33
2023-09-11T20:51:37.967Z,16.35
2023-09-11T20:54:04.686Z,16.32
2023-09-11T20:56:31.403Z,16.29
2023-09-11T20:58:57.737Z,16.31
2023-09-11T21:01:24.124Z,16.31
2023-09-11T21:03:50.854Z,16.31
2023-09-11T21:06:17.405Z,16.28
2023-09-11T21:08:44.210Z,16.27
2023-09-11T21:11:10.767Z,16.24
2023-09-11T21:13:37.111Z,16.19
2023-09-11T21:16:03.667Z,16.16
2023-09-11T21:18:30.378Z,16.15
2023-09-11T21:20:56.824Z,16.12
2023-09-11T21:23:23.187Z,16.10
2023-09-11T21:25:49.994Z,16.08
2023-09-11T21:28:16.321Z,16.03
2023-09-11T21:30:42.685Z,15.98
2023-09-11T21:33:09.086Z,15.98
2023-09-11T21:35:35.595Z,15.97
2023-09-11T21:38:01.947Z,15.92
2023-09-11T21:40:28.385Z,15.84
2023-09-11T21:42:54.718Z,15.81
2023-09-11T21:45:21.242Z,15.77
2023-09-11T21:47:47.983Z,15.73
2023-09-11T21:50:14.371Z,15.68
2023-09-11T21:52:40.723Z,15.66
2023-09-11T21:55:07.492Z,15.64
2023-09-11T21:57:34.169Z,15.59
2023-09-11T22:00:00.696Z,15.54
2023-09-11T22:02:27.194Z,15.53
2023-09-11T22:04:53.578Z,15.57
2023-09-11T22:07:19.924Z,15.53
2023-09-11T22:09:46.262Z,15.50
2023-09-11T22:12:13.394Z,15.54
2023-09-11T22:14:40.061Z,15.56
2023-09-11T22:17:06.506Z,15.58
2023-09-11T22:19:32.841Z,15.59
2023-09-11T22:21:59.194Z,15.59
2023-09-11T22:24:25.583Z,15.55
2023-09-11T22:26:51.986Z,15.50
2023-09-11T22:29:18.331Z,15.48
2023-09-11T22:31:44.664Z,15.44
2023-09-11T22:34:11.071Z,15.40
2023-09-11T22:36:37.526Z,15.37
2023-09-11T22:39:04.060Z,15.38
2023-09-11T22:41:30.423Z,15.37
2023-09-11T22:43:56.877Z,15.36
2023-09-11T22:46:23.262Z,15.35
2023-09-11T22:48:49.607Z,15.34
2023-09-11T22:51:15.973Z,15.33
2023-09-11T22:53:42.309Z,15.33
2023-09-11T22:56:08.643Z,15.35
2023-09-11T22:58:34.995Z,15.36
2023-09-11T23:01:07.344Z,15.40
2023-09-11T23:03:43.658Z,15.39
2023-09-11T23:06:10.290Z,15.37
2023-09-11T23:08:36.655Z,15.32
2023-09-11T23:11:02.996Z,15.28
2023-09-11T23:13:29.378Z,15.24
2023-09-11T23:15:56.689Z,15.18
2023-09-11T23:18:23.077Z,15.16
2023-09-11T23:20:49.701Z,15.13
2023-09-11T23:23:16.497Z,15.09
2023-09-11T23:25:44.545Z,15.02
2023-09-11T23:28:10.880Z,14.96
2023-09-11T23:30:37.510Z,14.92
2023-09-11T23:33:04.074Z,14.88
2023-09-11T23:35:30.460Z,14.86
2023-09-11T23:37:56.804Z,14.87
2023-09-11T23:40:23.148Z,14.88
2023-09-11T23:42:49.501Z,14.85
2023-09-11T23:45:15.872Z,14.82
2023-09-11T23:47:42.250Z,14.82
2023-09-11T23:50:08.759Z,14.80
2023-09-11T23:52:35.104Z,14.79
2023-09-11T23:55:01.970Z,14.81
2023-09-11T23:57:28.349Z,14.83
2023-09-11T23:59:54.770Z,14.83
